Time;durP1;ratioP1;P1;durP2;ratioP2;P2;SDS_P1;SDS_P2;PMS_P1;PMS_P2;Temp;Humidity;BMP_temperature;BMP_pressure;BME280_temperature;BME280_humidity;BME280_pressure;Samples;Min_cycle;Max_cycle;Signal;HPM_P1;HPM_P2
2024/04/08 00:01:24;;;;;;;;;;;15.50;99.90;;;;;;8417433;28;20029;-72
2024/04/08 00:05:25;;;;;;;;;;;15.50;99.90;;;;;;8426524;28;19924;-73
2024/04/08 00:09:26;;;;;;;;;;;15.50;99.90;;;;;;8422214;28;19924;-72
2024/04/08 00:13:27;;;;;;;;;;;15.40;99.90;;;;;;8454739;27;19965;-72
2024/04/08 00:17:27;;;;;;;;;;;15.40;99.90;;;;;;8422794;28;19951;-72
2024/04/08 00:21:28;;;;;;;;;;;15.30;99.90;;;;;;8427428;28;19920;-72
2024/04/08 00:25:29;;;;;;;;;;;15.30;99.90;;;;;;8418983;28;19924;-72
2024/04/08 00:29:55;;;;;;;;;;;15.30;99.90;;;;;;8399082;28;19927;-73
2024/04/08 00:33:56;;;;;;;;;;;15.20;99.90;;;;;;8422991;28;19924;-72
2024/04/08 00:37:57;;;;;;;;;;;15.20;99.90;;;;;;8400851;28;19982;-72
2024/04/08 00:41:58;;;;;;;;;;;15.20;99.90;;;;;;8411304;28;19931;-72
2024/04/08 00:45:59;;;;;;;;;;;15.20;99.90;;;;;;8396559;28;19977;-72
2024/04/08 00:50:00;;;;;;;;;;;15.10;99.90;;;;;;8402373;28;20015;-72
2024/04/08 00:54:01;;;;;;;;;;;15.10;99.90;;;;;;8402372;28;20750;-72
2024/04/08 00:58:02;;;;;;;;;;;15.10;99.90;;;;;;8420386;28;20344;-72
2024/04/08 01:02:06;;;;;;;;;;;15.10;99.90;;;;;;8421946;28;20346;-72
2024/04/08 01:06:08;;;;;;;;;;;15.10;99.90;;;;;;8415476;28;20439;-72
2024/04/08 01:10:10;;;;;;;;;;;15.10;99.90;;;;;;8432871;27;20509;-73
2024/04/08 01:14:10;;;;;;;;;;;15.00;99.90;;;;;;8417827;28;19928;-72
2024/04/08 01:18:11;;;;;;;;;;;15.00;99.90;;;;;;8395576;28;20474;-72
2024/04/08 01:22:12;;;;;;;;;;;15.00;99.90;;;;;;8416872;28;20355;-72
2024/04/08 01:31:17;;;;;;;;;;;14.90;99.90;;;;;;8427471;28;19919;-72
2024/04/08 01:35:18;;;;;;;;;;;14.90;99.90;;;;;;8425602;28;19924;-72
2024/04/08 01:39:18;;;;;;;;;;;14.90;99.90;;;;;;8414747;28;19924;-72
2024/04/08 01:43:19;;;;;;;;;;;14.90;99.90;;;;;;8439195;27;19924;-72
2024/04/08 01:47:20;;;;;;;;;;;14.90;99.90;;;;;;8420531;28;20324;-72
2024/04/08 01:51:21;;;;;;;;;;;14.90;99.90;;;;;;8408550;28;19975;-72
2024/04/08 01:55:21;;;;;;;;;;;14.90;99.90;;;;;;8409940;28;20002;-73
2024/04/08 01:59:22;;;;;;;;;;;14.80;99.90;;;;;;8406488;28;20252;-72
2024/04/08 02:03:23;;;;;;;;;;;14.80;99.90;;;;;;8410446;28;19966;-72
2024/04/08 02:07:24;;;;;;;;;;;14.70;99.90;;;;;;8425492;28;20377;-72
2024/04/08 02:11:25;;;;;;;;;;;14.70;99.90;;;;;;8426082;28;20007;-73
2024/04/08 02:15:26;;;;;;;;;;;14.60;99.90;;;;;;8425112;28;19944;-73
2024/04/08 02:19:27;;;;;;;;;;;14.60;99.90;;;;;;8424741;28;19961;-72
2024/04/08 02:23:28;;;;;;;;;;;14.50;99.90;;;;;;8427652;28;20339;-72
2024/04/08 02:27:29;;;;;;;;;;;14.50;99.90;;;;;;8420917;28;19920;-73
2024/04/08 02:31:30;;;;;;;;;;;14.40;99.90;;;;;;8409194;28;19965;-72
2024/04/08 02:35:37;;;;;;;;;;;14.40;99.90;;;;;;8408235;28;19943;-72
2024/04/08 02:39:38;;;;;;;;;;;14.30;99.90;;;;;;8423504;28;19999;-72
2024/04/08 02:43:39;;;;;;;;;;;14.30;99.90;;;;;;8444023;27;19929;-72
2024/04/08 02:47:40;;;;;;;;;;;14.30;99.90;;;;;;8425726;28;19930;-72
2024/04/08 02:51:41;;;;;;;;;;;14.20;99.90;;;;;;8426530;28;19964;-73
2024/04/08 02:55:42;;;;;;;;;;;14.20;99.90;;;;;;8424152;28;19935;-72
2024/04/08 02:59:44;;;;;;;;;;;14.10;99.90;;;;;;8454475;27;19920;-72
2024/04/08 03:03:45;;;;;;;;;;;14.10;99.90;;;;;;8427311;28;19984;-72
2024/04/08 03:07:46;;;;;;;;;;;14.00;99.90;;;;;;8407531;28;20043;-72
2024/04/08 03:11:46;;;;;;;;;;;14.00;99.90;;;;;;8426490;28;20018;-73
2024/04/08 03:15:52;;;;;;;;;;;14.00;99.90;;;;;;8406349;28;19920;-73
2024/04/08 03:19:58;;;;;;;;;;;14.00;99.90;;;;;;8409660;28;20049;-72
2024/04/08 03:23:58;;;;;;;;;;;14.00;99.90;;;;;;8405170;28;19927;-72
2024/04/08 03:27:59;;;;;;;;;;;14.00;99.90;;;;;;8422769;28;19924;-72
2024/04/08 03:32:00;;;;;;;;;;;14.00;99.90;;;;;;8406677;28;19928;-72
2024/04/08 03:36:01;;;;;;;;;;;14.00;99.90;;;;;;8403913;28;20014;-73
2024/04/08 03:40:02;;;;;;;;;;;14.00;99.90;;;;;;8425970;28;20065;-72
2024/04/08 03:44:03;;;;;;;;;;;14.00;99.90;;;;;;8409086;28;20014;-72
2024/04/08 03:48:04;;;;;;;;;;;14.00;99.90;;;;;;8435682;28;19973;-72
2024/04/08 03:52:05;;;;;;;;;;;14.00;99.90;;;;;;8441477;28;20426;-72
2024/04/08 03:56:07;;;;;;;;;;;14.00;99.90;;;;;;8465269;27;21193;-72
2024/04/08 04:00:09;;;;;;;;;;;14.00;99.90;;;;;;8459522;27;20002;-72
2024/04/08 04:04:10;;;;;;;;;;;13.90;99.90;;;;;;8441767;27;20422;-72
2024/04/08 04:08:11;;;;;;;;;;;14.00;99.90;;;;;;8413360;28;20315;-73
2024/04/08 04:12:11;;;;;;;;;;;13.90;99.90;;;;;;8411076;28;20344;-72
2024/04/08 04:16:12;;;;;;;;;;;13.90;99.90;;;;;;8413479;28;19920;-73
2024/04/08 04:20:18;;;;;;;;;;;13.90;99.90;;;;;;8431180;28;19920;-72
2024/04/08 04:24:19;;;;;;;;;;;13.80;99.90;;;;;;8430703;28;20007;-72
2024/04/08 04:28:20;;;;;;;;;;;13.70;99.90;;;;;;8429019;28;19930;-72
2024/04/08 04:32:21;;;;;;;;;;;13.70;99.90;;;;;;8396451;28;21210;-72
2024/04/08 04:36:22;;;;;;;;;;;13.60;99.90;;;;;;8419373;28;19977;-72
2024/04/08 04:40:23;;;;;;;;;;;13.50;99.90;;;;;;8446241;28;19927;-72
2024/04/08 04:44:24;;;;;;;;;;;13.40;99.90;;;;;;8424755;28;20294;-72
2024/04/08 04:48:25;;;;;;;;;;;13.40;99.90;;;;;;8410221;28;20437;-73
2024/04/08 04:52:26;;;;;;;;;;;13.30;99.90;;;;;;8425755;28;19994;-72
2024/04/08 04:56:27;;;;;;;;;;;13.30;99.90;;;;;;8426877;28;19959;-72
2024/04/08 05:00:28;;;;;;;;;;;13.30;99.90;;;;;;8432755;28;20007;-72
2024/04/08 05:04:29;;;;;;;;;;;13.30;99.90;;;;;;8423459;28;19923;-72
2024/04/08 05:08:29;;;;;;;;;;;13.20;99.90;;;;;;8413853;28;19926;-73
2024/04/08 05:12:30;;;;;;;;;;;13.30;99.90;;;;;;8398210;28;19931;-73
2024/04/08 05:16:31;;;;;;;;;;;13.30;99.90;;;;;;8406299;28;20379;-73
2024/04/08 05:20:34;;;;;;;;;;;13.40;99.90;;;;;;8424992;28;20401;-72
2024/04/08 05:24:35;;;;;;;;;;;13.40;99.90;;;;;;8420420;28;20078;-73
2024/04/08 05:28:35;;;;;;;;;;;13.40;99.90;;;;;;8426526;28;19927;-73
2024/04/08 05:32:36;;;;;;;;;;;13.40;99.90;;;;;;8411298;28;20369;-72
2024/04/08 05:36:37;;;;;;;;;;;13.30;99.90;;;;;;8423125;28;19923;-72
2024/04/08 05:40:38;;;;;;;;;;;13.30;99.90;;;;;;8421190;28;20007;-72
2024/04/08 05:44:39;;;;;;;;;;;13.30;99.90;;;;;;8407512;28;20056;-72
2024/04/08 05:48:40;;;;;;;;;;;13.30;99.90;;;;;;8405595;28;20010;-72
2024/04/08 05:52:40;;;;;;;;;;;13.30;99.90;;;;;;8469102;28;19920;-73
2024/04/08 05:56:42;;;;;;;;;;;13.30;99.90;;;;;;8409880;28;19919;-72
2024/04/08 06:00:43;;;;;;;;;;;13.30;99.90;;;;;;8422573;28;20006;-72
2024/04/08 06:04:44;;;;;;;;;;;13.40;99.90;;;;;;8426865;28;20136;-73
2024/04/08 06:08:47;;;;;;;;;;;13.40;99.90;;;;;;8407966;28;20023;-72
2024/04/08 06:12:48;;;;;;;;;;;13.40;99.90;;;;;;8443183;28;20010;-72
2024/04/08 06:16:49;;;;;;;;;;;13.50;99.90;;;;;;8436214;28;20079;-72
2024/04/08 06:20:56;;;;;;;;;;;13.70;99.90;;;;;;8429047;28;20021;-73
2024/04/08 06:24:57;;;;;;;;;;;13.80;99.90;;;;;;8412124;28;20019;-72
2024/04/08 06:28:57;;;;;;;;;;;13.90;99.90;;;;;;8463328;27;19931;-73
2024/04/08 06:32:58;;;;;;;;;;;14.00;99.90;;;;;;8459505;27;19920;-72
2024/04/08 06:36:59;;;;;;;;;;;14.10;99.90;;;;;;8430408;28;20011;-73
2024/04/08 06:41:00;;;;;;;;;;;14.10;99.90;;;;;;8453839;27;19925;-73
2024/04/08 06:45:01;;;;;;;;;;;14.20;99.90;;;;;;8398495;28;20323;-73
2024/04/08 06:49:01;;;;;;;;;;;14.30;99.90;;;;;;8443640;28;19967;-73
2024/04/08 06:53:02;;;;;;;;;;;14.40;99.90;;;;;;8411317;28;19920;-73
2024/04/08 06:57:03;;;;;;;;;;;14.50;99.90;;;;;;8413200;28;19920;-73
2024/04/08 07:01:04;;;;;;;;;;;14.60;99.90;;;;;;8427519;28;20003;-73
2024/04/08 07:05:05;;;;;;;;;;;14.70;99.90;;;;;;8449445;27;19927;-73
2024/04/08 07:09:06;;;;;;;;;;;14.80;99.90;;;;;;8463395;27;20020;-73
2024/04/08 07:13:07;;;;;;;;;;;15.00;99.90;;;;;;8443065;27;19971;-73
2024/04/08 07:17:07;;;;;;;;;;;15.00;99.90;;;;;;8386871;28;19919;-73
2024/04/08 07:21:09;;;;;;;;;;;15.10;99.90;;;;;;8411149;28;19919;-73
2024/04/08 07:25:09;;;;;;;;;;;15.10;99.90;;;;;;8416132;28;20030;-73
2024/04/08 07:29:10;;;;;;;;;;;15.20;99.90;;;;;;8411305;28;19920;-72
2024/04/08 07:33:11;;;;;;;;;;;15.20;99.90;;;;;;8408949;28;19974;-73
2024/04/08 07:37:12;;;;;;;;;;;15.30;99.90;;;;;;8463263;27;19924;-72
2024/04/08 07:41:12;;;;;;;;;;;15.30;99.90;;;;;;8430372;28;19924;-72
2024/04/08 07:45:13;;;;;;;;;;;15.30;99.90;;;;;;8385885;28;19927;-72
2024/04/08 07:49:14;;;;;;;;;;;15.20;99.90;;;;;;8425141;27;23686;-72
2024/04/08 07:53:15;;;;;;;;;;;15.20;99.90;;;;;;8405451;28;20030;-72
2024/04/08 07:57:15;;;;;;;;;;;15.30;99.90;;;;;;8398933;28;19935;-72
2024/04/08 08:01:16;;;;;;;;;;;15.30;99.90;;;;;;8423240;27;19924;-72
2024/04/08 08:05:17;;;;;;;;;;;15.40;99.90;;;;;;8418528;28;19932;-72
2024/04/08 08:09:18;;;;;;;;;;;15.40;99.90;;;;;;8381585;28;20871;-72
2024/04/08 08:13:19;;;;;;;;;;;15.50;99.90;;;;;;8371147;28;19982;-72
2024/04/08 08:17:23;;;;;;;;;;;15.60;99.90;;;;;;8389733;28;19930;-72
2024/04/08 08:21:24;;;;;;;;;;;15.80;99.90;;;;;;8386386;28;19924;-72
2024/04/08 08:25:25;;;;;;;;;;;16.00;99.90;;;;;;8371682;28;19927;-72
2024/04/08 08:29:27;;;;;;;;;;;16.20;99.90;;;;;;8384563;28;20000;-72
2024/04/08 08:33:27;;;;;;;;;;;16.30;99.90;;;;;;8387804;28;19946;-72
2024/04/08 08:37:28;;;;;;;;;;;16.50;99.90;;;;;;8406044;28;19942;-72
2024/04/08 08:41:30;;;;;;;;;;;16.80;99.90;;;;;;8423604;27;20451;-72
2024/04/08 08:45:32;;;;;;;;;;;17.00;99.90;;;;;;8424757;28;19972;-72
2024/04/08 08:49:32;;;;;;;;;;;17.10;99.90;;;;;;8397275;28;20017;-72
2024/04/08 08:53:33;;;;;;;;;;;17.30;99.90;;;;;;8419387;27;20022;-72
2024/04/08 08:57:34;;;;;;;;;;;17.50;99.90;;;;;;8396903;28;19920;-72
2024/04/08 09:01:35;;;;;;;;;;;17.70;99.90;;;;;;8381536;28;19985;-73
2024/04/08 09:05:36;;;;;;;;;;;17.70;99.90;;;;;;8388508;28;20047;-72
2024/04/08 09:09:36;;;;;;;;;;;17.50;99.90;;;;;;8419979;28;20553;-72
2024/04/08 09:13:38;;;;;;;;;;;17.30;99.90;;;;;;8388479;28;20362;-72
2024/04/08 09:17:38;;;;;;;;;;;17.30;99.90;;;;;;8401333;28;19920;-72
2024/04/08 09:21:39;;;;;;;;;;;17.40;99.90;;;;;;8422611;27;19974;-72
2024/04/08 09:25:40;;;;;;;;;;;17.50;99.90;;;;;;8388328;28;19924;-72
2024/04/08 09:29:41;;;;;;;;;;;17.50;99.90;;;;;;8392389;28;19920;-73
2024/04/08 09:33:42;;;;;;;;;;;17.50;99.90;;;;;;8387102;28;19943;-72
2024/04/08 09:37:43;;;;;;;;;;;17.30;99.90;;;;;;8387599;28;20384;-72
2024/04/08 09:41:44;;;;;;;;;;;17.20;99.90;;;;;;8366769;28;20405;-72
2024/04/08 09:45:45;;;;;;;;;;;17.30;99.90;;;;;;8423132;28;19934;-72
2024/04/08 09:49:48;;;;;;;;;;;17.40;99.90;;;;;;8398489;28;19971;-72
2024/04/08 09:53:49;;;;;;;;;;;17.50;99.90;;;;;;8426072;27;19926;-73
2024/04/08 09:57:51;;;;;;;;;;;17.50;99.90;;;;;;8375339;28;19928;-73
2024/04/08 10:01:53;;;;;;;;;;;17.60;99.90;;;;;;8391716;28;19930;-72
2024/04/08 10:05:54;;;;;;;;;;;17.90;99.90;;;;;;8423517;28;20338;-73
2024/04/08 10:09:56;;;;;;;;;;;18.00;99.90;;;;;;8395825;28;19934;-73
2024/04/08 10:13:57;;;;;;;;;;;17.90;99.90;;;;;;8424923;27;19934;-73
2024/04/08 10:17:58;;;;;;;;;;;17.80;99.90;;;;;;8373591;28;19925;-73
2024/04/08 10:21:59;;;;;;;;;;;17.90;99.90;;;;;;8383241;28;19930;-73
2024/04/08 10:26:00;;;;;;;;;;;18.00;99.90;;;;;;8415997;28;20360;-73
2024/04/08 10:30:01;;;;;;;;;;;18.00;99.90;;;;;;8383024;28;19935;-73
2024/04/08 10:34:03;;;;;;;;;;;18.20;99.90;;;;;;8426108;27;19930;-72
2024/04/08 10:38:04;;;;;;;;;;;18.20;99.90;;;;;;8419754;27;19951;-72
2024/04/08 10:42:12;;;;;;;;;;;18.40;99.90;;;;;;8392010;28;19925;-72
2024/04/08 10:46:14;;;;;;;;;;;18.70;99.90;;;;;;8420631;28;20294;-72
2024/04/08 10:50:15;;;;;;;;;;;18.90;99.90;;;;;;8396559;28;19920;-73
2024/04/08 10:54:17;;;;;;;;;;;18.80;99.90;;;;;;8426084;27;19947;-72
2024/04/08 10:58:18;;;;;;;;;;;18.60;99.90;;;;;;8398516;27;20045;-72
2024/04/08 11:02:19;;;;;;;;;;;18.70;99.90;;;;;;8420575;27;19956;-73
2024/04/08 11:06:20;;;;;;;;;;;18.80;99.90;;;;;;8404533;28;20268;-72
2024/04/08 11:10:21;;;;;;;;;;;19.00;99.90;;;;;;8378501;28;19924;-72
2024/04/08 11:14:22;;;;;;;;;;;19.10;99.90;;;;;;8402909;28;20002;-73
2024/04/08 11:18:23;;;;;;;;;;;19.10;99.90;;;;;;8420399;27;19920;-72
2024/04/08 11:22:24;;;;;;;;;;;19.20;99.90;;;;;;8371331;28;19967;-72
2024/04/08 11:26:30;;;;;;;;;;;19.30;99.90;;;;;;8420589;27;19976;-72
2024/04/08 11:30:35;;;;;;;;;;;19.50;99.90;;;;;;8406197;28;20410;-73
2024/04/08 11:34:36;;;;;;;;;;;19.80;99.90;;;;;;8403987;28;20906;-72
2024/04/08 11:38:40;;;;;;;;;;;20.00;99.90;;;;;;8371783;28;20339;-73
2024/04/08 11:42:41;;;;;;;;;;;20.30;99.90;;;;;;8391755;28;19927;-73
2024/04/08 11:46:42;;;;;;;;;;;21.10;99.90;;;;;;8423523;27;20015;-73
2024/04/08 11:50:43;;;;;;;;;;;21.80;99.90;;;;;;8420979;27;19943;-73
2024/04/08 11:54:43;;;;;;;;;;;22.10;99.90;;;;;;8422432;27;19956;-73
2024/04/08 11:58:45;;;;;;;;;;;22.00;99.90;;;;;;8386353;28;19920;-73
2024/04/08 12:02:49;;;;;;;;;;;21.60;99.90;;;;;;8372990;28;19920;-73
2024/04/08 12:06:49;;;;;;;;;;;21.20;99.90;;;;;;8424413;27;19924;-72
2024/04/08 12:10:50;;;;;;;;;;;20.90;99.90;;;;;;8371884;28;19932;-73
2024/04/08 12:14:51;;;;;;;;;;;20.60;99.90;;;;;;8401464;28;20000;-72
2024/04/08 12:18:52;;;;;;;;;;;20.50;99.90;;;;;;8418000;27;19920;-72
2024/04/08 12:22:53;;;;;;;;;;;20.40;99.90;;;;;;8387064;28;19920;-73
2024/04/08 12:26:54;;;;;;;;;;;20.20;99.90;;;;;;8388804;28;20427;-73
2024/04/08 12:30:55;;;;;;;;;;;20.10;99.90;;;;;;8400479;28;19924;-72
2024/04/08 12:34:55;;;;;;;;;;;20.10;99.90;;;;;;8386510;28;20018;-72
2024/04/08 12:38:56;;;;;;;;;;;20.00;99.90;;;;;;8372641;28;19927;-73
2024/04/08 12:42:57;;;;;;;;;;;19.90;99.90;;;;;;8426916;27;19920;-72
2024/04/08 12:46:58;;;;;;;;;;;19.70;99.90;;;;;;8387098;28;19924;-72
2024/04/08 12:50:59;;;;;;;;;;;19.60;99.90;;;;;;8425775;27;19920;-73
2024/04/08 12:56:35;;;;;;;;;;;19.50;99.90;;;;;;9178659;25;19942;-71
2024/04/08 13:00:37;;;;;;;;;;;19.70;99.90;;;;;;9174642;25;19939;-71
2024/04/08 13:04:39;;;;;;;;;;;19.70;99.90;;;;;;9176679;25;25094;-71
2024/04/08 13:08:41;;;;;;;;;;;19.70;99.90;;;;;;9144175;25;19981;-71
2024/04/08 13:12:43;;;;;;;;;;;19.70;99.90;;;;;;9189675;25;20272;-71
2024/04/08 13:16:45;;;;;;;;;;;19.70;99.90;;;;;;9184181;25;19927;-71
2024/04/08 13:20:47;;;;;;;;;;;19.70;99.90;;;;;;9172425;25;19928;-71
2024/04/08 13:24:49;;;;;;;;;;;19.70;99.90;;;;;;9133087;25;19935;-71
2024/04/08 13:28:50;;;;;;;;;;;19.60;99.90;;;;;;9167173;25;19953;-71
2024/04/08 13:32:53;;;;;;;;;;;19.60;99.90;;;;;;9169629;25;19927;-71
2024/04/08 13:36:55;;;;;;;;;;;19.60;99.90;;;;;;9170769;25;19955;-71
2024/04/08 13:40:57;;;;;;;;;;;19.60;99.90;;;;;;9162491;25;20273;-71
2024/04/08 13:44:59;;;;;;;;;;;19.60;99.90;;;;;;9133968;25;20397;-71
2024/04/08 13:49:01;;;;;;;;;;;19.70;99.90;;;;;;9174225;25;19939;-71
2024/04/08 13:53:02;;;;;;;;;;;19.70;99.90;;;;;;9168140;25;19976;-71
2024/04/08 13:57:04;;;;;;;;;;;20.00;99.90;;;;;;9164872;25;19964;-71
2024/04/08 14:01:06;;;;;;;;;;;20.20;99.90;;;;;;9175702;25;19927;-71
2024/04/08 14:05:09;;;;;;;;;;;20.40;99.90;;;;;;9155347;25;19927;-72
2024/04/08 14:09:13;;;;;;;;;;;20.90;99.90;;;;;;9148589;25;19931;-71
2024/04/08 14:13:15;;;;;;;;;;;21.50;99.90;;;;;;9132358;25;19935;-72
2024/04/08 14:17:17;;;;;;;;;;;22.40;99.90;;;;;;9143261;25;20293;-72
2024/04/08 14:21:19;;;;;;;;;;;23.70;99.90;;;;;;9138813;25;19964;-72
2024/04/08 14:25:22;;;;;;;;;;;24.70;99.90;;;;;;9135851;25;21256;-71
2024/04/08 14:29:23;;;;;;;;;;;25.00;99.90;;;;;;9142029;25;19934;-72
2024/04/08 14:33:27;;;;;;;;;;;24.60;99.90;;;;;;9149346;25;19934;-72
2024/04/08 14:37:29;;;;;;;;;;;24.30;99.90;;;;;;9140344;25;19928;-71
2024/04/08 14:41:49;;;;;;;;;;;24.10;99.90;;;;;;9139735;25;20024;-72
2024/04/08 14:45:51;;;;;;;;;;;23.90;99.90;;;;;;9145673;25;19972;-71
2024/04/08 14:49:53;;;;;;;;;;;24.00;99.90;;;;;;9122217;25;19927;-72
2024/04/08 14:53:55;;;;;;;;;;;24.70;99.90;;;;;;9131515;25;20446;-72
2024/04/08 14:57:57;;;;;;;;;;;25.40;99.90;;;;;;9141889;25;19935;-72
2024/04/08 15:01:58;;;;;;;;;;;25.70;99.90;;;;;;9113430;25;20286;-72
2024/04/08 15:06:00;;;;;;;;;;;26.10;99.90;;;;;;9110739;25;20347;-71
2024/04/08 15:10:02;;;;;;;;;;;26.10;99.90;;;;;;9104029;25;19959;-71
2024/04/08 15:14:04;;;;;;;;;;;25.90;99.90;;;;;;9136603;25;19963;-72
2024/04/08 15:18:06;;;;;;;;;;;25.40;99.90;;;;;;9139448;25;19927;-72
2024/04/08 15:22:08;;;;;;;;;;;25.40;99.90;;;;;;9135797;25;19975;-71
2024/04/08 15:26:10;;;;;;;;;;;25.20;99.90;;;;;;9140278;25;19975;-72
2024/04/08 15:30:12;;;;;;;;;;;24.80;99.90;;;;;;9137726;25;20004;-72
2024/04/08 15:34:14;;;;;;;;;;;24.50;99.90;;;;;;9107499;25;19933;-72
2024/04/08 15:38:16;;;;;;;;;;;25.00;99.90;;;;;;9107669;25;19942;-72
2024/04/08 15:42:17;;;;;;;;;;;26.00;99.90;;;;;;9133089;25;20031;-72
2024/04/08 15:46:19;;;;;;;;;;;27.10;99.90;;;;;;9133675;25;19959;-72
2024/04/08 15:50:21;;;;;;;;;;;28.10;99.90;;;;;;9135698;25;19934;-72
2024/04/08 15:54:23;;;;;;;;;;;28.70;99.90;;;;;;9131348;25;19984;-72
2024/04/08 15:58:25;;;;;;;;;;;29.10;99.90;;;;;;9136290;25;19934;-72
2024/04/08 16:02:27;;;;;;;;;;;29.00;99.90;;;;;;9138442;25;19934;-72
2024/04/08 16:06:29;;;;;;;;;;;28.90;99.90;;;;;;9149795;25;19938;-72
2024/04/08 16:10:37;;;;;;;;;;;28.90;99.90;;;;;;9134578;25;19940;-72
2024/04/08 16:14:39;;;;;;;;;;;28.80;99.90;;;;;;9154491;25;19927;-72
2024/04/08 16:18:41;;;;;;;;;;;28.80;99.90;;;;;;9144206;25;19954;-72
2024/04/08 16:22:42;;;;;;;;;;;28.70;99.90;;;;;;9104531;25;19936;-72
2024/04/08 16:27:02;;;;;;;;;;;28.00;99.90;;;;;;9109730;25;20366;-71
2024/04/08 16:31:07;;;;;;;;;;;26.80;99.90;;;;;;9136617;25;19976;-72
2024/04/08 16:35:09;;;;;;;;;;;25.90;99.90;;;;;;9147759;25;19959;-72
2024/04/08 16:39:12;;;;;;;;;;;25.10;99.90;;;;;;9138826;25;19972;-72
2024/04/08 16:43:15;;;;;;;;;;;24.60;99.90;;;;;;9141421;25;19935;-72
2024/04/08 16:47:17;;;;;;;;;;;24.10;99.90;;;;;;9137771;25;19932;-72
2024/04/08 16:51:20;;;;;;;;;;;23.90;99.90;;;;;;9134249;25;20053;-72
2024/04/08 16:55:22;;;;;;;;;;;24.00;99.90;;;;;;9129859;25;20263;-72
2024/04/08 16:59:24;;;;;;;;;;;24.20;99.90;;;;;;9136746;25;19955;-72
2024/04/08 17:03:27;;;;;;;;;;;23.90;99.90;;;;;;9151974;25;19951;-72
2024/04/08 17:07:32;;;;;;;;;;;23.60;99.90;;;;;;9102556;25;20266;-72
2024/04/08 17:11:34;;;;;;;;;;;23.20;99.90;;;;;;9102296;25;19927;-72
2024/04/08 17:15:36;;;;;;;;;;;23.00;99.90;;;;;;9136876;25;20266;-72
2024/04/08 17:19:38;;;;;;;;;;;22.80;99.90;;;;;;9121237;25;19928;-72
2024/04/08 17:23:40;;;;;;;;;;;22.70;99.90;;;;;;9131529;25;20015;-71
2024/04/08 17:27:41;;;;;;;;;;;22.50;99.90;;;;;;9148310;25;19934;-72
2024/04/08 17:31:43;;;;;;;;;;;22.40;99.90;;;;;;9140413;25;19954;-72
2024/04/08 17:35:55;;;;;;;;;;;22.30;99.90;;;;;;9145686;25;19927;-72
2024/04/08 17:39:56;;;;;;;;;;;22.30;99.90;;;;;;9101226;25;19955;-72
2024/04/08 17:43:59;;;;;;;;;;;22.10;99.90;;;;;;9142870;25;19931;-72
2024/04/08 17:48:01;;;;;;;;;;;22.00;99.90;;;;;;9150399;25;19994;-79
2024/04/08 17:52:03;;;;;;;;;;;21.90;99.90;;;;;;9158339;25;20312;-72
2024/04/08 17:56:05;;;;;;;;;;;21.80;99.90;;;;;;9137750;25;20324;-71
2024/04/08 18:00:07;;;;;;;;;;;21.70;99.90;;;;;;9110774;25;20003;-71
2024/04/08 18:04:09;;;;;;;;;;;21.60;99.90;;;;;;9137220;25;19975;-71
2024/04/08 18:08:12;;;;;;;;;;;21.50;99.90;;;;;;9146488;25;19927;-71
2024/04/08 18:12:14;;;;;;;;;;;21.30;99.90;;;;;;9134753;25;19928;-71
2024/04/08 18:16:18;;;;;;;;;;;21.20;99.90;;;;;;9141805;25;19928;-71
2024/04/08 18:20:20;;;;;;;;;;;21.00;99.90;;;;;;9114889;25;19938;-72
2024/04/08 18:24:21;;;;;;;;;;;20.80;99.90;;;;;;9140098;25;20342;-71
2024/04/08 18:28:24;;;;;;;;;;;20.70;99.90;;;;;;9135086;25;19934;-72
2024/04/08 18:32:25;;;;;;;;;;;20.60;99.90;;;;;;9131195;25;20012;-71
2024/04/08 18:36:29;;;;;;;;;;;20.50;99.90;;;;;;9146359;25;19927;-71
2024/04/08 18:40:31;;;;;;;;;;;20.30;99.90;;;;;;9112847;25;19939;-71
2024/04/08 18:44:33;;;;;;;;;;;20.30;99.90;;;;;;9132631;25;19955;-71
2024/04/08 18:48:36;;;;;;;;;;;20.20;99.90;;;;;;9130386;25;19959;-71
2024/04/08 18:52:38;;;;;;;;;;;20.10;99.90;;;;;;9138685;25;19971;-71
2024/04/08 18:56:40;;;;;;;;;;;20.00;99.90;;;;;;9143619;25;19934;-71
2024/04/08 19:00:41;;;;;;;;;;;19.90;99.90;;;;;;9145213;25;19937;-71
2024/04/08 19:04:43;;;;;;;;;;;19.80;99.90;;;;;;9136844;25;19927;-71
2024/04/08 19:08:45;;;;;;;;;;;19.80;99.90;;;;;;9140742;25;20525;-70
2024/04/08 19:12:47;;;;;;;;;;;19.70;99.90;;;;;;9149419;25;19934;-71
2024/04/08 19:16:52;;;;;;;;;;;19.60;99.90;;;;;;9147526;25;20339;-71
2024/04/08 19:20:54;;;;;;;;;;;19.60;99.90;;;;;;9111458;25;19929;-71
2024/04/08 19:24:56;;;;;;;;;;;19.60;99.90;;;;;;9133283;25;20382;-71
2024/04/08 19:29:01;;;;;;;;;;;19.50;99.90;;;;;;9123383;25;19940;-71
2024/04/08 19:33:03;;;;;;;;;;;19.40;99.90;;;;;;9138681;25;19959;-71
2024/04/08 19:37:07;;;;;;;;;;;19.40;99.90;;;;;;9142638;25;19935;-71
2024/04/08 19:41:09;;;;;;;;;;;19.30;99.90;;;;;;9137534;25;19928;-71
2024/04/08 19:45:11;;;;;;;;;;;19.30;99.90;;;;;;9111610;25;19935;-71
2024/04/08 19:49:20;;;;;;;;;;;19.30;99.90;;;;;;9137291;25;19947;-71
2024/04/08 19:53:22;;;;;;;;;;;19.20;99.90;;;;;;9135043;25;19935;-71
2024/04/08 19:57:24;;;;;;;;;;;19.10;99.90;;;;;;9104528;25;19927;-71
2024/04/08 20:01:26;;;;;;;;;;;19.00;99.90;;;;;;9135847;25;20452;-71
2024/04/08 20:05:28;;;;;;;;;;;19.00;99.90;;;;;;9133074;25;19963;-71
2024/04/08 20:09:32;;;;;;;;;;;18.90;99.90;;;;;;9133674;25;19954;-71
2024/04/08 20:13:35;;;;;;;;;;;18.80;99.90;;;;;;9113142;25;19927;-71
2024/04/08 20:17:37;;;;;;;;;;;18.80;99.90;;;;;;9136972;25;19928;-71
2024/04/08 20:21:39;;;;;;;;;;;18.80;99.90;;;;;;9133241;25;19927;-71
2024/04/08 20:26:00;;;;;;;;;;;18.70;99.90;;;;;;9134205;25;19935;-71
2024/04/08 20:30:01;;;;;;;;;;;18.60;99.90;;;;;;9133407;25;19927;-71
2024/04/08 20:39:07;;;;;;;;;;;18.40;99.90;;;;;;9134695;25;19991;-72
2024/04/08 20:43:09;;;;;;;;;;;18.30;99.90;;;;;;9130668;25;19939;-71
2024/04/08 20:47:11;;;;;;;;;;;18.20;99.90;;;;;;9126492;25;20333;-71
2024/04/08 20:51:13;;;;;;;;;;;18.10;99.90;;;;;;9135900;25;19928;-71
2024/04/08 20:55:15;;;;;;;;;;;18.10;99.90;;;;;;9132154;25;20002;-71
2024/04/08 20:59:17;;;;;;;;;;;18.10;99.90;;;;;;9135423;25;19948;-71
2024/04/08 21:03:19;;;;;;;;;;;18.10;99.90;;;;;;9154580;25;19939;-71
2024/04/08 21:07:21;;;;;;;;;;;18.00;99.90;;;;;;9165264;25;19939;-71
2024/04/08 21:11:23;;;;;;;;;;;18.00;99.90;;;;;;9125478;25;19983;-71
2024/04/08 21:15:25;;;;;;;;;;;17.90;99.90;;;;;;9165494;25;20355;-71
2024/04/08 21:19:27;;;;;;;;;;;17.90;99.90;;;;;;9150027;25;19931;-71
2024/04/08 21:23:29;;;;;;;;;;;17.80;99.90;;;;;;9169064;25;20379;-71
2024/04/08 21:27:31;;;;;;;;;;;17.70;99.90;;;;;;9147825;25;19943;-71
2024/04/08 21:31:33;;;;;;;;;;;17.70;99.90;;;;;;9168946;25;19939;-71
2024/04/08 21:35:36;;;;;;;;;;;17.70;99.90;;;;;;9162267;25;19952;-71
2024/04/08 21:39:37;;;;;;;;;;;17.70;99.90;;;;;;9187902;25;19931;-71
2024/04/08 21:43:41;;;;;;;;;;;17.70;99.90;;;;;;9144154;25;20267;-71
2024/04/08 21:47:43;;;;;;;;;;;17.70;99.90;;;;;;9145837;25;19936;-71
2024/04/08 21:51:46;;;;;;;;;;;17.70;99.90;;;;;;9150347;25;19995;-71
2024/04/08 21:55:48;;;;;;;;;;;17.70;99.90;;;;;;9175040;25;20371;-71
2024/04/08 21:59:56;;;;;;;;;;;17.70;99.90;;;;;;9165438;25;20311;-71
2024/04/08 22:03:59;;;;;;;;;;;17.70;99.90;;;;;;9122905;25;19939;-71
2024/04/08 22:08:01;;;;;;;;;;;17.70;99.90;;;;;;9169366;25;20694;-71
2024/04/08 22:12:03;;;;;;;;;;;17.70;99.90;;;;;;9148816;25;19928;-71
2024/04/08 22:16:05;;;;;;;;;;;17.70;99.90;;;;;;9190444;25;20301;-71
2024/04/08 22:25:19;;;;;;;;;;;17.60;99.90;;;;;;9172797;25;19934;-71
2024/04/08 22:29:21;;;;;;;;;;;17.60;99.90;;;;;;9165980;25;20263;-71
2024/04/08 22:33:23;;;;;;;;;;;17.60;99.90;;;;;;9185010;25;19928;-71
2024/04/08 22:37:25;;;;;;;;;;;17.60;99.90;;;;;;9166264;25;19942;-71
2024/04/08 22:41:27;;;;;;;;;;;17.60;99.90;;;;;;9135899;25;19955;-70
2024/04/08 22:45:37;;;;;;;;;;;17.60;99.90;;;;;;9181450;25;19935;-71
2024/04/08 22:49:39;;;;;;;;;;;17.70;99.90;;;;;;9154078;25;19934;-71
2024/04/08 22:53:41;;;;;;;;;;;17.60;99.90;;;;;;9167790;25;19927;-71
2024/04/08 22:57:43;;;;;;;;;;;17.30;99.90;;;;;;9188250;25;19934;-71
2024/04/08 23:01:45;;;;;;;;;;;17.30;99.90;;;;;;9188171;25;19935;-71
2024/04/08 23:05:47;;;;;;;;;;;17.30;99.90;;;;;;9183444;25;19983;-71
2024/04/08 23:09:48;;;;;;;;;;;17.40;99.90;;;;;;9155068;25;20291;-71
2024/04/08 23:13:50;;;;;;;;;;;17.30;99.90;;;;;;9170817;25;19931;-71
2024/04/08 23:17:52;;;;;;;;;;;17.20;99.90;;;;;;9172713;25;19938;-71
2024/04/08 23:21:54;;;;;;;;;;;17.20;99.90;;;;;;9168345;25;20407;-71
2024/04/08 23:25:56;;;;;;;;;;;17.00;99.90;;;;;;9184419;25;19927;-71
2024/04/08 23:29:58;;;;;;;;;;;16.90;99.90;;;;;;9133284;25;20283;-71
2024/04/08 23:34:00;;;;;;;;;;;16.70;99.90;;;;;;9165846;25;19959;-70
2024/04/08 23:38:02;;;;;;;;;;;16.70;99.90;;;;;;9157453;25;20431;-70
2024/04/08 23:42:04;;;;;;;;;;;16.60;99.90;;;;;;9147860;25;19942;-70